60.8°F
Current conditions from King Hill
Updated every 5 minutes
 
  Wednesday September 3, 2014

Station Historical Data
Daily Summary for May 8, 2011 Units:  Both    English   Metric
« Previous Day
Next Day »
Daily Weekly Monthly Yearly Custom
  High: Low: Average:
Temperature: 62.9 °F /  17.2 °C 45.5 °F /  7.5 °C 52.6 °F /  11.4 °C
Dew Point: 46.3 °F /  7.9 °C 37.4 °F /  3 °C 41.5 °F /  5.3 °C
Humidity: 91% 40% 68%
Wind Speed: 8.0mph /  12.9km/h - 3mph /  4.8km/h
Wind Gust: 18.0mph /  29km/h - -
Wind- - SSW
Pressure: 30.00 in /  1015.8 hPa 29.84 in /  1010.4 hPa -
Precipitation: 0.01 in /  0.3 mm    
Historical Graphs
 
 
Tabular Data for May 8, 2011
Time Temperature Dew Point Pressure Wind Wind Speed Wind Gust Humidity Daily Rainfall
00:00 50.3 °F /  10.2 °C 44.4 °F /  6.9 °C 29.84in /  1010.4hPa Calm     80% 0.00in /  0mm
00:05 50.2 °F /  10.1 °C 44.3 °F /  6.8 °C 29.84in /  1010.4hPa Calm     80% 0.00in /  0mm
00:10 50.1 °F /  10.1 °C 44.2 °F /  6.8 °C 29.84in /  1010.4hPa Calm     80% 0.00in /  0mm
00:15 49.9 °F /  9.9 °C 44.0 °F /  6.7 °C 29.85in /  1010.7hPa Calm     80% 0.00in /  0mm
00:20 49.9 °F /  9.9 °C 44.0 °F /  6.7 °C 29.85in /  1010.7hPa Calm   2.0mph /  3.2km/h 80% 0.00in /  0mm
00:25 49.9 °F /  9.9 °C 44.3 °F /  6.8 °C 29.85in /  1010.7hPa Calm   2.0mph /  3.2km/h 81% 0.00in /  0mm
00:35 49.9 °F /  9.9 °C 44.3 °F /  6.8 °C 29.84in /  1010.4hPa Calm     81% 0.00in /  0mm
00:40 49.8 °F /  9.9 °C 43.9 °F /  6.6 °C 29.84in /  1010.4hPa Calm   2.0mph /  3.2km/h 80% 0.00in /  0mm
00:45 49.8 °F /  9.9 °C 43.9 °F /  6.6 °C 29.85in /  1010.7hPa NNE 1.0mph /  1.6km/h 3.0mph /  4.8km/h 80% 0.00in /  0mm
00:50 49.7 °F /  9.8 °C 43.8 °F /  6.6 °C 29.85in /  1010.7hPa Calm   3.0mph /  4.8km/h 80% 0.00in /  0mm
00:55 49.7 °F /  9.8 °C 43.5 °F /  6.4 °C 29.85in /  1010.7hPa Calm   2.0mph /  3.2km/h 79% 0.00in /  0mm
01:00 49.7 °F /  9.8 °C 43.5 °F /  6.4 °C 29.85in /  1010.7hPa Calm   2.0mph /  3.2km/h 79% 0.00in /  0mm
01:05 49.6 °F /  9.8 °C 43.4 °F /  6.3 °C 29.85in /  1010.7hPa Calm     79% 0.00in /  0mm
01:10 49.4 °F /  9.7 °C 43.5 °F /  6.4 °C 29.85in /  1010.7hPa Calm     80% 0.00in /  0mm
01:15 49.2 °F /  9.6 °C 43.3 °F /  6.3 °C 29.85in /  1010.7hPa Calm     80% 0.00in /  0mm
01:20 48.9 °F /  9.4 °C 43.0 °F /  6.1 °C 29.85in /  1010.7hPa Calm     80% 0.00in /  0mm
01:25 48.8 °F /  9.3 °C 43.2 °F /  6.2 °C 29.85in /  1010.7hPa Calm     81% 0.00in /  0mm
01:30 48.7 °F /  9.3 °C 43.1 °F /  6.2 °C 29.85in /  1010.7hPa Calm     81% 0.00in /  0mm
01:35 48.6 °F /  9.2 °C 43.0 °F /  6.1 °C 29.85in /  1010.7hPa NNE 1.0mph /  1.6km/h 3.0mph /  4.8km/h 81% 0.00in /  0mm
01:40 48.5 °F /  9.2 °C 42.9 °F /  6.1 °C 29.85in /  1010.7hPa Calm   3.0mph /  4.8km/h 81% 0.00in /  0mm
01:45 48.3 °F /  9.1 °C 42.7 °F /  5.9 °C 29.85in /  1010.7hPa NNE 1.0mph /  1.6km/h 5.0mph /  8km/h 81% 0.00in /  0mm
01:50 48.1 °F /  8.9 °C 42.6 °F /  5.9 °C 29.85in /  1010.7hPa Calm   5.0mph /  8km/h 81% 0.00in /  0mm
01:55 48.1 °F /  8.9 °C 42.6 °F /  5.9 °C 29.84in /  1010.4hPa Calm   2.0mph /  3.2km/h 81% 0.00in /  0mm
02:00 48.0 °F /  8.9 °C 42.5 °F /  5.8 °C 29.84in /  1010.4hPa Calm     81% 0.00in /  0mm
02:05 47.9 °F /  8.8 °C 42.7 °F /  5.9 °C 29.85in /  1010.7hPa Calm     82% 0.00in /  0mm
02:10 47.6 °F /  8.7 °C 42.4 °F /  5.8 °C 29.84in /  1010.4hPa Calm     82% 0.00in /  0mm
02:15 47.4 °F /  8.6 °C 42.2 °F /  5.7 °C 29.85in /  1010.7hPa Calm   1.0mph /  1.6km/h 82% 0.00in /  0mm
02:20 47.3 °F /  8.5 °C 42.1 °F /  5.6 °C 29.85in /  1010.7hPa Calm   1.0mph /  1.6km/h 82% 0.00in /  0mm
02:25 47.1 °F /  8.4 °C 42.2 °F /  5.7 °C 29.85in /  1010.7hPa Calm     83% 0.00in /  0mm
02:30 47.0 °F /  8.3 °C 42.1 °F /  5.6 °C 29.85in /  1010.7hPa Calm     83% 0.00in /  0mm
02:35 46.9 °F /  8.3 °C 42.0 °F /  5.6 °C 29.85in /  1010.7hPa Calm     83% 0.00in /  0mm
02:40 46.8 °F /  8.2 °C 42.2 °F /  5.7 °C 29.85in /  1010.7hPa Calm     84% 0.00in /  0mm
02:45 46.7 °F /  8.2 °C 42.1 °F /  5.6 °C 29.85in /  1010.7hPa Calm     84% 0.00in /  0mm
02:50 46.7 °F /  8.2 °C 42.1 °F /  5.6 °C 29.85in /  1010.7hPa Calm     84% 0.00in /  0mm
02:55 46.8 °F /  8.2 °C 42.5 °F /  5.8 °C 29.85in /  1010.7hPa Calm     85% 0.00in /  0mm
03:10 46.9 °F /  8.3 °C 42.3 °F /  5.7 °C 29.85in /  1010.7hPa Calm   1.0mph /  1.6km/h 84% 0.00in /  0mm
03:15 47.0 °F /  8.3 °C 42.7 °F /  5.9 °C 29.85in /  1010.7hPa Calm     85% 0.00in /  0mm
03:20 47.0 °F /  8.3 °C 42.4 °F /  5.8 °C 29.85in /  1010.7hPa Calm   1.0mph /  1.6km/h 84% 0.00in /  0mm
03:25 46.9 °F /  8.3 °C 42.3 °F /  5.7 °C 29.86in /  1011.1hPa Calm   2.0mph /  3.2km/h 84% 0.00in /  0mm
03:30 46.8 °F /  8.2 °C 42.2 °F /  5.7 °C 29.86in /  1011.1hPa Calm   2.0mph /  3.2km/h 84% 0.00in /  0mm
03:35 46.8 °F /  8.2 °C 42.5 °F /  5.8 °C 29.86in /  1011.1hPa Calm     85% 0.00in /  0mm
03:40 46.9 °F /  8.3 °C 42.6 °F /  5.9 °C 29.86in /  1011.1hPa NNE 1.0mph /  1.6km/h 2.0mph /  3.2km/h 85% 0.00in /  0mm
03:45 46.9 °F /  8.3 °C 42.9 °F /  6.1 °C 29.86in /  1011.1hPa Calm   2.0mph /  3.2km/h 86% 0.00in /  0mm
03:50 46.7 °F /  8.2 °C 42.7 °F /  5.9 °C 29.86in /  1011.1hPa NNE 1.0mph /  1.6km/h 3.0mph /  4.8km/h 86% 0.00in /  0mm
03:55 46.6 °F /  8.1 °C 42.9 °F /  6.1 °C 29.86in /  1011.1hPa Calm   3.0mph /  4.8km/h 87% 0.00in /  0mm
03:59 46.4 °F /  8 °C 42.7 °F /  5.9 °C 29.86in /  1011.1hPa NW 3.0mph /  4.8km/h 5.0mph /  8km/h 87% 0.00in /  0mm
04:05 46.3 °F /  7.9 °C 42.9 °F /  6.1 °C 29.87in /  1011.4hPa NW 3.0mph /  4.8km/h 5.0mph /  8km/h 88% 0.00in /  0mm
04:10 46.2 °F /  7.9 °C 42.8 °F /  6 °C 29.87in /  1011.4hPa NW 3.0mph /  4.8km/h 5.0mph /  8km/h 88% 0.00in /  0mm
04:15 46.0 °F /  7.8 °C 42.9 °F /  6.1 °C 29.87in /  1011.4hPa Calm   5.0mph /  8km/h 89% 0.00in /  0mm
04:20 45.9 °F /  7.7 °C 42.8 °F /  6 °C 29.87in /  1011.4hPa Calm   4.0mph /  6.4km/h 89% 0.00in /  0mm
04:25 45.9 °F /  7.7 °C 42.8 °F /  6 °C 29.87in /  1011.4hPa NW 1.0mph /  1.6km/h 3.0mph /  4.8km/h 89% 0.00in /  0mm
04:30 45.8 °F /  7.7 °C 42.7 °F /  5.9 °C 29.87in /  1011.4hPa Calm   3.0mph /  4.8km/h 89% 0.00in /  0mm
04:35 45.8 °F /  7.7 °C 42.7 °F /  5.9 °C 29.87in /  1011.4hPa Calm   1.0mph /  1.6km/h 89% 0.00in /  0mm
04:40 45.7 °F /  7.6 °C 42.6 °F /  5.9 °C 29.87in /  1011.4hPa Calm   2.0mph /  3.2km/h 89% 0.00in /  0mm
04:45 45.7 °F /  7.6 °C 42.9 °F /  6.1 °C 29.88in /  1011.7hPa Calm   2.0mph /  3.2km/h 90% 0.00in /  0mm
04:50 45.8 °F /  7.7 °C 43.0 °F /  6.1 °C 29.88in /  1011.7hPa Calm   3.0mph /  4.8km/h 90% 0.00in /  0mm
04:55 45.8 °F /  7.7 °C 43.0 °F /  6.1 °C 29.88in /  1011.7hPa Calm   3.0mph /  4.8km/h 90% 0.00in /  0mm
05:00 45.7 °F /  7.6 °C 42.9 °F /  6.1 °C 29.88in /  1011.7hPa Calm   3.0mph /  4.8km/h 90% 0.00in /  0mm
05:05 45.7 °F /  7.6 °C 42.9 °F /  6.1 °C 29.88in /  1011.7hPa Calm   2.0mph /  3.2km/h 90% 0.00in /  0mm
05:10 45.8 °F /  7.7 °C 43.0 °F /  6.1 °C 29.88in /  1011.7hPa Calm   2.0mph /  3.2km/h 90% 0.00in /  0mm
05:15 45.8 °F /  7.7 °C 43.0 °F /  6.1 °C 29.89in /  1012.1hPa Calm   3.0mph /  4.8km/h 90% 0.00in /  0mm
05:19 45.8 °F /  7.7 °C 43.0 °F /  6.1 °C 29.89in /  1012.1hPa NW 1.0mph /  1.6km/h 3.0mph /  4.8km/h 90% 0.00in /  0mm
05:25 45.8 °F /  7.7 °C 43.0 °F /  6.1 °C 29.89in /  1012.1hPa Calm   2.0mph /  3.2km/h 90% 0.00in /  0mm
05:30 45.7 °F /  7.6 °C 42.9 °F /  6.1 °C 29.89in /  1012.1hPa NW 1.0mph /  1.6km/h 4.0mph /  6.4km/h 90% 0.00in /  0mm
05:35 45.7 °F /  7.6 °C 42.9 °F /  6.1 °C 29.89in /  1012.1hPa Calm   4.0mph /  6.4km/h 90% 0.00in /  0mm
05:40 45.6 °F /  7.6 °C 42.8 °F /  6 °C 29.90in /  1012.4hPa Calm   4.0mph /  6.4km/h 90% 0.00in /  0mm
05:45 45.6 °F /  7.6 °C 42.8 °F /  6 °C 29.90in /  1012.4hPa NW 1.0mph /  1.6km/h 4.0mph /  6.4km/h 90% 0.00in /  0mm
05:50 45.6 °F /  7.6 °C 42.8 °F /  6 °C 29.90in /  1012.4hPa NW 1.0mph /  1.6km/h 4.0mph /  6.4km/h 90% 0.00in /  0mm
05:55 45.6 °F /  7.6 °C 42.8 °F /  6 °C 29.90in /  1012.4hPa Calm   2.0mph /  3.2km/h 90% 0.00in /  0mm
05:59 45.6 °F /  7.6 °C 42.8 °F /  6 °C 29.91in /  1012.8hPa Calm   4.0mph /  6.4km/h 90% 0.00in /  0mm
06:05 45.6 °F /  7.6 °C 42.8 °F /  6 °C 29.91in /  1012.8hPa Calm   4.0mph /  6.4km/h 90% 0.01in /  0.3mm
06:10 45.6 °F /  7.6 °C 42.8 °F /  6 °C 29.91in /  1012.8hPa Calm   3.0mph /  4.8km/h 90% 0.01in /  0.3mm
06:15 45.6 °F /  7.6 °C 42.8 °F /  6 °C 29.91in /  1012.8hPa Calm   2.0mph /  3.2km/h 90% 0.01in /  0.3mm
06:20 45.6 °F /  7.6 °C 42.8 °F /  6 °C 29.91in /  1012.8hPa Calm   1.0mph /  1.6km/h 90% 0.01in /  0.3mm
06:25 45.5 °F /  7.5 °C 42.7 °F /  5.9 °C 29.91in /  1012.8hPa Calm   4.0mph /  6.4km/h 90% 0.01in /  0.3mm
06:30 45.5 °F /  7.5 °C 42.7 °F /  5.9 °C 29.91in /  1012.8hPa Calm   4.0mph /  6.4km/h 90% 0.01in /  0.3mm
06:35 45.5 °F /  7.5 °C 42.7 °F /  5.9 °C 29.92in /  1013.1hPa Calm   1.0mph /  1.6km/h 90% 0.01in /  0.3mm
06:39 45.5 °F /  7.5 °C 42.7 °F /  5.9 °C 29.92in /  1013.1hPa Calm   1.0mph /  1.6km/h 90% 0.01in /  0.3mm
06:45 45.5 °F /  7.5 °C 43.0 °F /  6.1 °C 29.92in /  1013.1hPa Calm   1.0mph /  1.6km/h 91% 0.01in /  0.3mm
06:50 45.6 °F /  7.6 °C 43.1 °F /  6.2 °C 29.92in /  1013.1hPa NW 1.0mph /  1.6km/h 3.0mph /  4.8km/h 91% 0.01in /  0.3mm
06:54 45.6 °F /  7.6 °C 43.1 °F /  6.2 °C 29.92in /  1013.1hPa Calm   3.0mph /  4.8km/h 91% 0.01in /  0.3mm
07:00 45.6 °F /  7.6 °C 43.1 °F /  6.2 °C 29.92in /  1013.1hPa Calm   1.0mph /  1.6km/h 91% 0.01in /  0.3mm
07:05 45.7 °F /  7.6 °C 43.2 °F /  6.2 °C 29.92in /  1013.1hPa NW 1.0mph /  1.6km/h 3.0mph /  4.8km/h 91% 0.01in /  0.3mm
07:09 45.7 °F /  7.6 °C 43.2 °F /  6.2 °C 29.92in /  1013.1hPa Calm   3.0mph /  4.8km/h 91% 0.01in /  0.3mm
07:15 45.8 °F /  7.7 °C 43.3 °F /  6.3 °C 29.92in /  1013.1hPa Calm   2.0mph /  3.2km/h 91% 0.01in /  0.3mm
07:20 45.9 °F /  7.7 °C 43.4 °F /  6.3 °C 29.92in /  1013.1hPa Calm   2.0mph /  3.2km/h 91% 0.01in /  0.3mm
07:24 46.0 °F /  7.8 °C 43.5 °F /  6.4 °C 29.93in /  1013.4hPa NW 1.0mph /  1.6km/h 2.0mph /  3.2km/h 91% 0.01in /  0.3mm
07:30 46.1 °F /  7.8 °C 43.6 °F /  6.4 °C 29.93in /  1013.4hPa Calm   2.0mph /  3.2km/h 91% 0.01in /  0.3mm
07:35 46.2 °F /  7.9 °C 43.7 °F /  6.5 °C 29.93in /  1013.4hPa Calm   4.0mph /  6.4km/h 91% 0.01in /  0.3mm
07:40 46.2 °F /  7.9 °C 43.7 °F /  6.5 °C 29.93in /  1013.4hPa Calm   4.0mph /  6.4km/h 91% 0.01in /  0.3mm
07:45 46.3 °F /  7.9 °C 43.8 °F /  6.6 °C 29.93in /  1013.4hPa NNW 1.0mph /  1.6km/h 3.0mph /  4.8km/h 91% 0.01in /  0.3mm
07:50 46.4 °F /  8 °C 43.9 °F /  6.6 °C 29.93in /  1013.4hPa Calm   3.0mph /  4.8km/h 91% 0.01in /  0.3mm
07:55 46.5 °F /  8.1 °C 44.0 °F /  6.7 °C 29.93in /  1013.4hPa Calm   3.0mph /  4.8km/h 91% 0.01in /  0.3mm
08:00 46.6 °F /  8.1 °C 44.1 °F /  6.7 °C 29.93in /  1013.4hPa Calm   3.0mph /  4.8km/h 91% 0.01in /  0.3mm
08:05 46.6 °F /  8.1 °C 44.1 °F /  6.7 °C 29.93in /  1013.4hPa NNW 1.0mph /  1.6km/h 3.0mph /  4.8km/h 91% 0.01in /  0.3mm
08:10 46.6 °F /  8.1 °C 44.1 °F /  6.7 °C 29.93in /  1013.4hPa Calm   3.0mph /  4.8km/h 91% 0.01in /  0.3mm
08:14 46.5 °F /  8.1 °C 44.0 °F /  6.7 °C 29.93in /  1013.4hPa Calm   2.0mph /  3.2km/h 91% 0.01in /  0.3mm
08:20 46.6 °F /  8.1 °C 44.1 °F /  6.7 °C 29.93in /  1013.4hPa Calm   1.0mph /  1.6km/h 91% 0.01in /  0.3mm
08:25 46.7 °F /  8.2 °C 44.2 °F /  6.8 °C 29.93in /  1013.4hPa NW 1.0mph /  1.6km/h 3.0mph /  4.8km/h 91% 0.01in /  0.3mm
08:30 46.9 °F /  8.3 °C 44.4 °F /  6.9 °C 29.93in /  1013.4hPa NNW 1.0mph /  1.6km/h 3.0mph /  4.8km/h 91% 0.01in /  0.3mm
08:34 47.0 °F /  8.3 °C 44.2 °F /  6.8 °C 29.94in /  1013.8hPa Calm   4.0mph /  6.4km/h 90% 0.01in /  0.3mm
08:40 47.1 °F /  8.4 °C 44.3 °F /  6.8 °C 29.94in /  1013.8hPa Calm   4.0mph /  6.4km/h 90% 0.01in /  0.3mm
08:45 47.3 °F /  8.5 °C 44.5 °F /  6.9 °C 29.93in /  1013.4hPa Calm   5.0mph /  8km/h 90% 0.01in /  0.3mm
08:49 47.7 °F /  8.7 °C 44.6 °F /  7 °C 29.94in /  1013.8hPa North 1.0mph /  1.6km/h 5.0mph /  8km/h 89% 0.01in /  0.3mm
08:55 48.0 °F /  8.9 °C 44.9 °F /  7.2 °C 29.93in /  1013.4hPa Calm   4.0mph /  6.4km/h 89% 0.01in /  0.3mm
08:59 48.2 °F /  9 °C 44.8 °F /  7.1 °C 29.94in /  1013.8hPa NNE 1.0mph /  1.6km/h 5.0mph /  8km/h 88% 0.01in /  0.3mm
09:05 48.5 °F /  9.2 °C 44.8 °F /  7.1 °C 29.94in /  1013.8hPa Calm   5.0mph /  8km/h 87% 0.01in /  0.3mm
09:10 48.7 °F /  9.3 °C 44.7 °F /  7.1 °C 29.94in /  1013.8hPa NNW 1.0mph /  1.6km/h 3.0mph /  4.8km/h 86% 0.01in /  0.3mm
09:15 48.8 °F /  9.3 °C 44.8 °F /  7.1 °C 29.94in /  1013.8hPa North 1.0mph /  1.6km/h 5.0mph /  8km/h 86% 0.01in /  0.3mm
09:19 49.2 °F /  9.6 °C 45.2 °F /  7.3 °C 29.94in /  1013.8hPa Calm   5.0mph /  8km/h 86% 0.01in /  0.3mm
09:25 49.7 °F /  9.8 °C 45.1 °F /  7.3 °C 29.94in /  1013.8hPa Calm   1.0mph /  1.6km/h 84% 0.01in /  0.3mm
09:30 50.2 °F /  10.1 °C 45.6 °F /  7.6 °C 29.94in /  1013.8hPa NNW 4.0mph /  6.4km/h 7.0mph /  11.3km/h 84% 0.01in /  0.3mm
09:35 50.4 °F /  10.2 °C 45.1 °F /  7.3 °C 29.94in /  1013.8hPa NNE 2.0mph /  3.2km/h 7.0mph /  11.3km/h 82% 0.01in /  0.3mm
09:40 51.2 °F /  10.7 °C 46.2 °F /  7.9 °C 29.94in /  1013.8hPa NNE 1.0mph /  1.6km/h 7.0mph /  11.3km/h 83% 0.01in /  0.3mm
09:45 51.9 °F /  11.1 °C 45.3 °F /  7.4 °C 29.94in /  1013.8hPa NNE 2.0mph /  3.2km/h 6.0mph /  9.7km/h 78% 0.01in /  0.3mm
09:50 52.4 °F /  11.3 °C 45.4 °F /  7.4 °C 29.94in /  1013.8hPa NNW 3.0mph /  4.8km/h 9.0mph /  14.5km/h 77% 0.01in /  0.3mm
09:55 52.8 °F /  11.6 °C 45.5 °F /  7.5 °C 29.94in /  1013.8hPa NNE 1.0mph /  1.6km/h 9.0mph /  14.5km/h 76% 0.01in /  0.3mm
10:00 53.2 °F /  11.8 °C 44.8 °F /  7.1 °C 29.94in /  1013.8hPa NNW 3.0mph /  4.8km/h 9.0mph /  14.5km/h 73% 0.01in /  0.3mm
10:05 53.5 °F /  11.9 °C 45.1 °F /  7.3 °C 29.94in /  1013.8hPa NE 3.0mph /  4.8km/h 8.0mph /  12.9km/h 73% 0.01in /  0.3mm
10:10 53.9 °F /  12.2 °C 45.1 °F /  7.3 °C 29.94in /  1013.8hPa NNE 4.0mph /  6.4km/h 8.0mph /  12.9km/h 72% 0.01in /  0.3mm
10:15 54.3 °F /  12.4 °C 45.5 °F /  7.5 °C 29.94in /  1013.8hPa NNW 3.0mph /  4.8km/h 8.0mph /  12.9km/h 72% 0.01in /  0.3mm
10:20 54.3 °F /  12.4 °C 44.4 °F /  6.9 °C 29.94in /  1013.8hPa NNW 4.0mph /  6.4km/h 8.0mph /  12.9km/h 69% 0.01in /  0.3mm
10:25 54.2 °F /  12.3 °C 43.9 °F /  6.6 °C 29.94in /  1013.8hPa NNW 3.0mph /  4.8km/h 8.0mph /  12.9km/h 68% 0.01in /  0.3mm
10:30 53.9 °F /  12.2 °C 45.1 °F /  7.3 °C 29.94in /  1013.8hPa NNW 3.0mph /  4.8km/h 6.0mph /  9.7km/h 72% 0.01in /  0.3mm
10:35 53.5 °F /  11.9 °C 45.4 °F /  7.4 °C 29.94in /  1013.8hPa NW 4.0mph /  6.4km/h 8.0mph /  12.9km/h 74% 0.01in /  0.3mm
10:40 52.9 °F /  11.6 °C 44.8 °F /  7.1 °C 29.94in /  1013.8hPa WNW 6.0mph /  9.7km/h 10.0mph /  16.1km/h 74% 0.01in /  0.3mm
10:45 52.8 °F /  11.6 °C 45.1 °F /  7.3 °C 29.94in /  1013.8hPa NW 2.0mph /  3.2km/h 10.0mph /  16.1km/h 75% 0.01in /  0.3mm
10:50 53.0 °F /  11.7 °C 45.3 °F /  7.4 °C 29.94in /  1013.8hPa NNW 2.0mph /  3.2km/h 8.0mph /  12.9km/h 75% 0.01in /  0.3mm
10:55 53.4 °F /  11.9 °C 45.3 °F /  7.4 °C 29.94in /  1013.8hPa NNW 4.0mph /  6.4km/h 7.0mph /  11.3km/h 74% 0.01in /  0.3mm
11:00 53.8 °F /  12.1 °C 44.6 °F /  7 °C 29.94in /  1013.8hPa NW 5.0mph /  8km/h 10.0mph /  16.1km/h 71% 0.01in /  0.3mm
11:05 54.0 °F /  12.2 °C 44.8 °F /  7.1 °C 29.94in /  1013.8hPa NNW 5.0mph /  8km/h 10.0mph /  16.1km/h 71% 0.01in /  0.3mm
11:10 54.4 °F /  12.4 °C 45.2 °F /  7.3 °C 29.94in /  1013.8hPa NW 4.0mph /  6.4km/h 7.0mph /  11.3km/h 71% 0.01in /  0.3mm
11:15 54.8 °F /  12.7 °C 46.3 °F /  7.9 °C 29.94in /  1013.8hPa Calm   8.0mph /  12.9km/h 73% 0.01in /  0.3mm
11:20 55.1 °F /  12.8 °C 44.7 °F /  7.1 °C 29.94in /  1013.8hPa NW 6.0mph /  9.7km/h 10.0mph /  16.1km/h 68% 0.01in /  0.3mm
11:25 55.0 °F /  12.8 °C 45.4 °F /  7.4 °C 29.94in /  1013.8hPa WNW 5.0mph /  8km/h 10.0mph /  16.1km/h 70% 0.01in /  0.3mm
11:30 55.8 °F /  13.2 °C 45.4 °F /  7.4 °C 29.94in /  1013.8hPa NW 4.0mph /  6.4km/h 9.0mph /  14.5km/h 68% 0.01in /  0.3mm
11:35 55.9 °F /  13.3 °C 43.1 °F /  6.2 °C 29.94in /  1013.8hPa NW 3.0mph /  4.8km/h 8.0mph /  12.9km/h 62% 0.01in /  0.3mm
11:40 56.0 °F /  13.3 °C 44.4 °F /  6.9 °C 29.94in /  1013.8hPa North 2.0mph /  3.2km/h 8.0mph /  12.9km/h 65% 0.01in /  0.3mm
11:45 56.4 °F /  13.6 °C 43.6 °F /  6.4 °C 29.94in /  1013.8hPa North 4.0mph /  6.4km/h 9.0mph /  14.5km/h 62% 0.01in /  0.3mm
11:50 57.6 °F /  14.2 °C 43.8 °F /  6.6 °C 29.94in /  1013.8hPa North 3.0mph /  4.8km/h 13.0mph /  20.9km/h 60% 0.01in /  0.3mm
11:55 57.8 °F /  14.3 °C 42.7 °F /  5.9 °C 29.94in /  1013.8hPa NNE 3.0mph /  4.8km/h 13.0mph /  20.9km/h 57% 0.01in /  0.3mm
12:00 57.4 °F /  14.1 °C 42.3 °F /  5.7 °C 29.94in /  1013.8hPa North 1.0mph /  1.6km/h 8.0mph /  12.9km/h 57% 0.01in /  0.3mm
12:05 57.4 °F /  14.1 °C 41.4 °F /  5.2 °C 29.94in /  1013.8hPa NNW 4.0mph /  6.4km/h 9.0mph /  14.5km/h 55% 0.01in /  0.3mm
12:10 57.2 °F /  14 °C 43.0 °F /  6.1 °C 29.94in /  1013.8hPa NNE 3.0mph /  4.8km/h 9.0mph /  14.5km/h 59% 0.01in /  0.3mm
12:15 56.9 °F /  13.8 °C 43.2 °F /  6.2 °C 29.94in /  1013.8hPa NNW 3.0mph /  4.8km/h 9.0mph /  14.5km/h 60% 0.01in /  0.3mm
12:20 57.2 °F /  14 °C 43.9 °F /  6.6 °C 29.94in /  1013.8hPa North 4.0mph /  6.4km/h 8.0mph /  12.9km/h 61% 0.01in /  0.3mm
12:25 57.1 °F /  13.9 °C 44.6 °F /  7 °C 29.94in /  1013.8hPa NNW 4.0mph /  6.4km/h 12.0mph /  19.3km/h 63% 0.01in /  0.3mm
12:30 57.6 °F /  14.2 °C 44.7 °F /  7.1 °C 29.94in /  1013.8hPa NW 2.0mph /  3.2km/h 12.0mph /  19.3km/h 62% 0.01in /  0.3mm
12:40 56.5 °F /  13.6 °C 42.8 °F /  6 °C 29.94in /  1013.8hPa NNW 5.0mph /  8km/h 11.0mph /  17.7km/h 60% 0.01in /  0.3mm
12:45 56.3 °F /  13.5 °C 42.2 °F /  5.7 °C 29.94in /  1013.8hPa NW 3.0mph /  4.8km/h 11.0mph /  17.7km/h 59% 0.01in /  0.3mm
12:50 56.5 °F /  13.6 °C 43.2 °F /  6.2 °C 29.94in /  1013.8hPa NW 2.0mph /  3.2km/h 10.0mph /  16.1km/h 61% 0.01in /  0.3mm
12:55 56.9 °F /  13.8 °C 42.3 °F /  5.7 °C 29.94in /  1013.8hPa NNW 4.0mph /  6.4km/h 9.0mph /  14.5km/h 58% 0.01in /  0.3mm
13:00 57.4 °F /  14.1 °C 42.8 °F /  6 °C 29.94in /  1013.8hPa NNW 4.0mph /  6.4km/h 10.0mph /  16.1km/h 58% 0.01in /  0.3mm
13:05 57.8 °F /  14.3 °C 42.2 °F /  5.7 °C 29.94in /  1013.8hPa NNW 5.0mph /  8km/h 11.0mph /  17.7km/h 56% 0.01in /  0.3mm
13:10 58.1 °F /  14.5 °C 42.5 °F /  5.8 °C 29.94in /  1013.8hPa Calm   11.0mph /  17.7km/h 56% 0.01in /  0.3mm
13:15 58.1 °F /  14.5 °C 41.6 °F /  5.3 °C 29.94in /  1013.8hPa NNW 1.0mph /  1.6km/h 8.0mph /  12.9km/h 54% 0.01in /  0.3mm
13:20 58.2 °F /  14.6 °C 39.7 °F /  4.3 °C 29.93in /  1013.4hPa NNE 2.0mph /  3.2km/h 8.0mph /  12.9km/h 50% 0.01in /  0.3mm
13:25 58.0 °F /  14.4 °C 41.0 °F /  5 °C 29.93in /  1013.4hPa NNE 1.0mph /  1.6km/h 9.0mph /  14.5km/h 53% 0.01in /  0.3mm
13:30 58.6 °F /  14.8 °C 39.5 °F /  4.2 °C 29.94in /  1013.8hPa NNE 5.0mph /  8km/h 11.0mph /  17.7km/h 49% 0.01in /  0.3mm
13:35 58.5 °F /  14.7 °C 39.9 °F /  4.4 °C 29.93in /  1013.4hPa NNW 2.0mph /  3.2km/h 11.0mph /  17.7km/h 50% 0.01in /  0.3mm
13:45 58.7 °F /  14.8 °C 39.1 °F /  3.9 °C 29.93in /  1013.4hPa NNW 4.0mph /  6.4km/h 9.0mph /  14.5km/h 48% 0.01in /  0.3mm
13:50 59.0 °F /  15 °C 41.9 °F /  5.5 °C 29.93in /  1013.4hPa East 6.0mph /  9.7km/h 12.0mph /  19.3km/h 53% 0.01in /  0.3mm
13:55 59.5 °F /  15.3 °C 39.3 °F /  4.1 °C 29.93in /  1013.4hPa North 8.0mph /  12.9km/h 13.0mph /  20.9km/h 47% 0.01in /  0.3mm
14:00 59.4 °F /  15.2 °C 38.1 °F /  3.4 °C 29.93in /  1013.4hPa NE 1.0mph /  1.6km/h 13.0mph /  20.9km/h 45% 0.01in /  0.3mm
14:05 59.9 °F /  15.5 °C 39.6 °F /  4.2 °C 29.93in /  1013.4hPa NNW 6.0mph /  9.7km/h 11.0mph /  17.7km/h 47% 0.01in /  0.3mm
14:10 60.6 °F /  15.9 °C 38.6 °F /  3.7 °C 29.93in /  1013.4hPa NE 5.0mph /  8km/h 12.0mph /  19.3km/h 44% 0.01in /  0.3mm
14:15 60.7 °F /  15.9 °C 38.7 °F /  3.7 °C 29.93in /  1013.4hPa North 5.0mph /  8km/h 13.0mph /  20.9km/h 44% 0.01in /  0.3mm
14:20 59.9 °F /  15.5 °C 39.1 °F /  3.9 °C 29.93in /  1013.4hPa North 2.0mph /  3.2km/h 13.0mph /  20.9km/h 46% 0.01in /  0.3mm
14:25 59.9 °F /  15.5 °C 39.1 °F /  3.9 °C 29.93in /  1013.4hPa NNE 4.0mph /  6.4km/h 11.0mph /  17.7km/h 46% 0.01in /  0.3mm
14:30 60.0 °F /  15.6 °C 40.3 °F /  4.6 °C 29.93in /  1013.4hPa NNW 3.0mph /  4.8km/h 11.0mph /  17.7km/h 48% 0.01in /  0.3mm
14:35 60.0 °F /  15.6 °C 40.8 °F /  4.9 °C 29.93in /  1013.4hPa NNW 3.0mph /  4.8km/h 10.0mph /  16.1km/h 49% 0.01in /  0.3mm
14:40 61.2 °F /  16.2 °C 40.3 °F /  4.6 °C 29.92in /  1013.1hPa NW 2.0mph /  3.2km/h 10.0mph /  16.1km/h 46% 0.01in /  0.3mm
14:45 61.8 °F /  16.6 °C 39.1 °F /  3.9 °C 29.93in /  1013.4hPa NNW 6.0mph /  9.7km/h 12.0mph /  19.3km/h 43% 0.01in /  0.3mm
14:50 61.6 °F /  16.4 °C 38.9 °F /  3.8 °C 29.93in /  1013.4hPa North 5.0mph /  8km/h 12.0mph /  19.3km/h 43% 0.01in /  0.3mm
14:55 60.5 °F /  15.8 °C 37.9 °F /  3.3 °C 29.93in /  1013.4hPa NNE 3.0mph /  4.8km/h 8.0mph /  12.9km/h 43% 0.01in /  0.3mm
15:00 59.9 °F /  15.5 °C 37.9 °F /  3.3 °C 29.92in /  1013.1hPa NNW 4.0mph /  6.4km/h 10.0mph /  16.1km/h 44% 0.01in /  0.3mm
15:05 59.1 °F /  15.1 °C 38.4 °F /  3.6 °C 29.93in /  1013.4hPa NW 5.0mph /  8km/h 12.0mph /  19.3km/h 46% 0.01in /  0.3mm
15:10 59.0 °F /  15 °C 39.9 °F /  4.4 °C 29.93in /  1013.4hPa NW 3.0mph /  4.8km/h 12.0mph /  19.3km/h 49% 0.01in /  0.3mm
15:15 59.0 °F /  15 °C 37.7 °F /  3.2 °C 29.92in /  1013.1hPa NE 2.0mph /  3.2km/h 10.0mph /  16.1km/h 45% 0.01in /  0.3mm
15:20 59.0 °F /  15 °C 37.7 °F /  3.2 °C 29.93in /  1013.4hPa North 1.0mph /  1.6km/h 8.0mph /  12.9km/h 45% 0.01in /  0.3mm
15:25 59.0 °F /  15 °C 37.7 °F /  3.2 °C 29.93in /  1013.4hPa NNW 2.0mph /  3.2km/h 8.0mph /  12.9km/h 45% 0.01in /  0.3mm
15:30 59.1 °F /  15.1 °C 38.4 °F /  3.6 °C 29.93in /  1013.4hPa NNE 2.0mph /  3.2km/h 9.0mph /  14.5km/h 46% 0.01in /  0.3mm
15:35 59.8 °F /  15.4 °C 38.4 °F /  3.6 °C 29.93in /  1013.4hPa NNW 5.0mph /  8km/h 12.0mph /  19.3km/h 45% 0.01in /  0.3mm
15:40 60.4 °F /  15.8 °C 39.0 °F /  3.9 °C 29.93in /  1013.4hPa NNW 6.0mph /  9.7km/h 13.0mph /  20.9km/h 45% 0.01in /  0.3mm
15:45 60.9 °F /  16.1 °C 40.0 °F /  4.4 °C 29.93in /  1013.4hPa North 4.0mph /  6.4km/h 13.0mph /  20.9km/h 46% 0.01in /  0.3mm
15:50 61.0 °F /  16.1 °C 38.9 °F /  3.8 °C 29.93in /  1013.4hPa NW 6.0mph /  9.7km/h 13.0mph /  20.9km/h 44% 0.01in /  0.3mm
15:55 60.8 °F /  16 °C 39.3 °F /  4.1 °C 29.93in /  1013.4hPa NNW 6.0mph /  9.7km/h 18.0mph /  29km/h 45% 0.01in /  0.3mm
16:00 60.7 °F /  15.9 °C 39.8 °F /  4.3 °C 29.93in /  1013.4hPa North 3.0mph /  4.8km/h 18.0mph /  29km/h 46% 0.01in /  0.3mm
16:05 60.4 °F /  15.8 °C 38.4 °F /  3.6 °C 29.93in /  1013.4hPa North 3.0mph /  4.8km/h 11.0mph /  17.7km/h 44% 0.01in /  0.3mm
16:10 59.8 °F /  15.4 °C 38.4 °F /  3.6 °C 29.93in /  1013.4hPa NW 5.0mph /  8km/h 13.0mph /  20.9km/h 45% 0.01in /  0.3mm
16:15 60.0 °F /  15.6 °C 39.2 °F /  4 °C 29.93in /  1013.4hPa NNE 4.0mph /  6.4km/h 13.0mph /  20.9km/h 46% 0.01in /  0.3mm
16:20 60.5 °F /  15.8 °C 38.5 °F /  3.6 °C 29.93in /  1013.4hPa NNW 7.0mph /  11.3km/h 17.0mph /  27.4km/h 44% 0.01in /  0.3mm
16:25 61.1 °F /  16.2 °C 39.0 °F /  3.9 °C 29.93in /  1013.4hPa NNE 5.0mph /  8km/h 17.0mph /  27.4km/h 44% 0.01in /  0.3mm
16:30 61.9 °F /  16.6 °C 39.8 °F /  4.3 °C 29.93in /  1013.4hPa North 2.0mph /  3.2km/h 13.0mph /  20.9km/h 44% 0.01in /  0.3mm
16:35 62.5 °F /  16.9 °C 38.5 °F /  3.6 °C 29.93in /  1013.4hPa NNE 4.0mph /  6.4km/h 13.0mph /  20.9km/h 41% 0.01in /  0.3mm
16:40 62.9 °F /  17.2 °C 40.1 °F /  4.5 °C 29.93in /  1013.4hPa NNW 3.0mph /  4.8km/h 9.0mph /  14.5km/h 43% 0.01in /  0.3mm
16:45 62.4 °F /  16.9 °C 38.4 °F /  3.6 °C 29.93in /  1013.4hPa NNE 2.0mph /  3.2km/h 9.0mph /  14.5km/h 41% 0.01in /  0.3mm
16:50 62.1 °F /  16.7 °C 38.1 °F /  3.4 °C 29.93in /  1013.4hPa NNE 4.0mph /  6.4km/h 10.0mph /  16.1km/h 41% 0.01in /  0.3mm
16:55 62.3 °F /  16.8 °C 38.9 °F /  3.8 °C 29.93in /  1013.4hPa NNE 1.0mph /  1.6km/h 10.0mph /  16.1km/h 42% 0.01in /  0.3mm
17:00 62.8 °F /  17.1 °C 39.4 °F /  4.1 °C 29.93in /  1013.4hPa North 4.0mph /  6.4km/h 10.0mph /  16.1km/h 42% 0.01in /  0.3mm
17:05 62.6 °F /  17 °C 38.0 °F /  3.3 °C 29.93in /  1013.4hPa North 4.0mph /  6.4km/h 14.0mph /  22.5km/h 40% 0.01in /  0.3mm
17:10 62.1 °F /  16.7 °C 38.7 °F /  3.7 °C 29.93in /  1013.4hPa North 7.0mph /  11.3km/h 14.0mph /  22.5km/h 42% 0.01in /  0.3mm
17:15 61.5 °F /  16.4 °C 38.8 °F /  3.8 °C 29.93in /  1013.4hPa NNW 8.0mph /  12.9km/h 14.0mph /  22.5km/h 43% 0.01in /  0.3mm
17:20 61.9 °F /  16.6 °C 39.2 °F /  4 °C 29.93in /  1013.4hPa NNW 4.0mph /  6.4km/h 14.0mph /  22.5km/h 43% 0.01in /  0.3mm
17:25 62.3 °F /  16.8 °C 38.9 °F /  3.8 °C 29.93in /  1013.4hPa North 5.0mph /  8km/h 13.0mph /  20.9km/h 42% 0.01in /  0.3mm
17:30 62.2 °F /  16.8 °C 38.8 °F /  3.8 °C 29.94in /  1013.8hPa NNW 8.0mph /  12.9km/h 14.0mph /  22.5km/h 42% 0.01in /  0.3mm
17:35 61.0 °F /  16.1 °C 39.5 °F /  4.2 °C 29.94in /  1013.8hPa NW 8.0mph /  12.9km/h 17.0mph /  27.4km/h 45% 0.01in /  0.3mm
17:45 61.3 °F /  16.3 °C 39.2 °F /  4 °C 29.94in /  1013.8hPa North 3.0mph /  4.8km/h 11.0mph /  17.7km/h 44% 0.01in /  0.3mm
17:50 62.0 °F /  16.7 °C 39.9 °F /  4.4 °C 29.93in /  1013.4hPa NNW 1.0mph /  1.6km/h 11.0mph /  17.7km/h 44% 0.01in /  0.3mm
17:55 62.8 °F /  17.1 °C 40.0 °F /  4.4 °C 29.93in /  1013.4hPa North 5.0mph /  8km/h 11.0mph /  17.7km/h 43% 0.01in /  0.3mm
18:00 62.7 °F /  17.1 °C 39.9 °F /  4.4 °C 29.94in /  1013.8hPa North 4.0mph /  6.4km/h 11.0mph /  17.7km/h 43% 0.01in /  0.3mm
18:05 62.4 °F /  16.9 °C 39.0 °F /  3.9 °C 29.94in /  1013.8hPa North 5.0mph /  8km/h 13.0mph /  20.9km/h 42% 0.01in /  0.3mm
18:10 61.9 °F /  16.6 °C 39.8 °F /  4.3 °C 29.94in /  1013.8hPa North 3.0mph /  4.8km/h 14.0mph /  22.5km/h 44% 0.01in /  0.3mm
18:15 62.0 °F /  16.7 °C 39.9 °F /  4.4 °C 29.94in /  1013.8hPa North 3.0mph /  4.8km/h 14.0mph /  22.5km/h 44% 0.01in /  0.3mm
18:20 61.3 °F /  16.3 °C 39.2 °F /  4 °C 29.94in /  1013.8hPa North 3.0mph /  4.8km/h 11.0mph /  17.7km/h 44% 0.01in /  0.3mm
18:30 60.6 °F /  15.9 °C 38.6 °F /  3.7 °C 29.95in /  1014.1hPa NNE 5.0mph /  8km/h 10.0mph /  16.1km/h 44% 0.01in /  0.3mm
18:35 60.5 °F /  15.8 °C 38.5 °F /  3.6 °C 29.95in /  1014.1hPa North 1.0mph /  1.6km/h 10.0mph /  16.1km/h 44% 0.01in /  0.3mm
18:40 61.1 °F /  16.2 °C 39.6 °F /  4.2 °C 29.95in /  1014.1hPa NNW 4.0mph /  6.4km/h 11.0mph /  17.7km/h 45% 0.01in /  0.3mm
18:45 60.9 °F /  16.1 °C 38.9 °F /  3.8 °C 29.95in /  1014.1hPa NNW 4.0mph /  6.4km/h 11.0mph /  17.7km/h 44% 0.01in /  0.3mm
18:50 60.5 °F /  15.8 °C 39.1 °F /  3.9 °C 29.95in /  1014.1hPa NNW 5.0mph /  8km/h 15.0mph /  24.1km/h 45% 0.01in /  0.3mm
18:55 60.1 °F /  15.6 °C 38.7 °F /  3.7 °C 29.95in /  1014.1hPa NNE 4.0mph /  6.4km/h 15.0mph /  24.1km/h 45% 0.01in /  0.3mm
19:00 59.5 °F /  15.3 °C 38.7 °F /  3.7 °C 29.95in /  1014.1hPa NNE 2.0mph /  3.2km/h 10.0mph /  16.1km/h 46% 0.01in /  0.3mm
19:05 59.0 °F /  15 °C 38.3 °F /  3.5 °C 29.95in /  1014.1hPa North 5.0mph /  8km/h 14.0mph /  22.5km/h 46% 0.01in /  0.3mm
19:10 58.5 °F /  14.7 °C 38.4 °F /  3.6 °C 29.95in /  1014.1hPa NNE 1.0mph /  1.6km/h 14.0mph /  22.5km/h 47% 0.01in /  0.3mm
19:15 58.0 °F /  14.4 °C 37.9 °F /  3.3 °C 29.96in /  1014.4hPa North 4.0mph /  6.4km/h 9.0mph /  14.5km/h 47% 0.01in /  0.3mm
19:20 57.7 °F /  14.3 °C 38.7 °F /  3.7 °C 29.96in /  1014.4hPa NNW 2.0mph /  3.2km/h 10.0mph /  16.1km/h 49% 0.01in /  0.3mm
19:25 57.9 °F /  14.4 °C 37.8 °F /  3.2 °C 29.96in /  1014.4hPa NNE 5.0mph /  8km/h 12.0mph /  19.3km/h 47% 0.01in /  0.3mm
19:30 57.9 °F /  14.4 °C 38.3 °F /  3.5 °C 29.96in /  1014.4hPa North 3.0mph /  4.8km/h 14.0mph /  22.5km/h 48% 0.01in /  0.3mm
19:35 57.8 °F /  14.3 °C 37.7 °F /  3.2 °C 29.96in /  1014.4hPa NNE 3.0mph /  4.8km/h 14.0mph /  22.5km/h 47% 0.01in /  0.3mm
19:40 57.4 °F /  14.1 °C 37.9 °F /  3.3 °C 29.96in /  1014.4hPa North 4.0mph /  6.4km/h 13.0mph /  20.9km/h 48% 0.01in /  0.3mm
19:45 57.0 °F /  13.9 °C 38.0 °F /  3.3 °C 29.97in /  1014.8hPa NNE 1.0mph /  1.6km/h 13.0mph /  20.9km/h 49% 0.01in /  0.3mm
19:50 56.5 °F /  13.6 °C 38.1 °F /  3.4 °C 29.97in /  1014.8hPa North 1.0mph /  1.6km/h 12.0mph /  19.3km/h 50% 0.01in /  0.3mm
19:55 56.1 °F /  13.4 °C 37.7 °F /  3.2 °C 29.97in /  1014.8hPa North 2.0mph /  3.2km/h 10.0mph /  16.1km/h 50% 0.01in /  0.3mm
20:00 55.5 °F /  13.1 °C 37.7 °F /  3.2 °C 29.97in /  1014.8hPa NNE 4.0mph /  6.4km/h 12.0mph /  19.3km/h 51% 0.01in /  0.3mm
20:05 55.2 °F /  12.9 °C 37.4 °F /  3 °C 29.97in /  1014.8hPa North 5.0mph /  8km/h 12.0mph /  19.3km/h 51% 0.01in /  0.3mm
20:10 55.0 °F /  12.8 °C 38.2 °F /  3.4 °C 29.97in /  1014.8hPa North 2.0mph /  3.2km/h 11.0mph /  17.7km/h 53% 0.01in /  0.3mm
20:15 54.7 °F /  12.6 °C 37.9 °F /  3.3 °C 29.97in /  1014.8hPa Calm   11.0mph /  17.7km/h 53% 0.01in /  0.3mm
20:20 54.4 °F /  12.4 °C 38.6 °F /  3.7 °C 29.98in /  1015.1hPa North 3.0mph /  4.8km/h 10.0mph /  16.1km/h 55% 0.01in /  0.3mm
20:25 54.2 °F /  12.3 °C 37.9 °F /  3.3 °C 29.98in /  1015.1hPa NNE 1.0mph /  1.6km/h 10.0mph /  16.1km/h 54% 0.01in /  0.3mm
20:30 54.1 °F /  12.3 °C 37.8 °F /  3.2 °C 29.98in /  1015.1hPa NNE 1.0mph /  1.6km/h 9.0mph /  14.5km/h 54% 0.01in /  0.3mm
20:35 54.0 °F /  12.2 °C 38.2 °F /  3.4 °C 29.98in /  1015.1hPa NNE 4.0mph /  6.4km/h 11.0mph /  17.7km/h 55% 0.01in /  0.3mm
20:40 53.8 °F /  12.1 °C 38.0 °F /  3.3 °C 29.98in /  1015.1hPa North 2.0mph /  3.2km/h 13.0mph /  20.9km/h 55% 0.01in /  0.3mm
20:45 53.5 °F /  11.9 °C 37.7 °F /  3.2 °C 29.98in /  1015.1hPa North 2.0mph /  3.2km/h 13.0mph /  20.9km/h 55% 0.01in /  0.3mm
20:50 53.3 °F /  11.8 °C 37.6 °F /  3.1 °C 29.98in /  1015.1hPa NNE 4.0mph /  6.4km/h 12.0mph /  19.3km/h 55% 0.01in /  0.3mm
20:55 53.0 °F /  11.7 °C 38.2 °F /  3.4 °C 29.99in /  1015.5hPa NNE 1.0mph /  1.6km/h 12.0mph /  19.3km/h 57% 0.01in /  0.3mm
21:00 52.7 °F /  11.5 °C 37.9 °F /  3.3 °C 29.99in /  1015.5hPa NE 2.0mph /  3.2km/h 8.0mph /  12.9km/h 57% 0.01in /  0.3mm
21:05 52.3 °F /  11.3 °C 38.0 °F /  3.3 °C 29.99in /  1015.5hPa North 1.0mph /  1.6km/h 9.0mph /  14.5km/h 58% 0.01in /  0.3mm
21:10 52.0 °F /  11.1 °C 38.1 °F /  3.4 °C 29.99in /  1015.5hPa Calm   11.0mph /  17.7km/h 59% 0.01in /  0.3mm
21:15 51.7 °F /  10.9 °C 38.3 °F /  3.5 °C 29.99in /  1015.5hPa NNE 1.0mph /  1.6km/h 11.0mph /  17.7km/h 60% 0.01in /  0.3mm
21:25 51.3 °F /  10.7 °C 37.9 °F /  3.3 °C 29.99in /  1015.5hPa Calm   8.0mph /  12.9km/h 60% 0.01in /  0.3mm
21:30 51.2 °F /  10.7 °C 38.6 °F /  3.7 °C 30.00in /  1015.8hPa NNE 2.0mph /  3.2km/h 8.0mph /  12.9km/h 62% 0.01in /  0.3mm
21:35 51.1 °F /  10.6 °C 38.5 °F /  3.6 °C 30.00in /  1015.8hPa North 2.0mph /  3.2km/h 8.0mph /  12.9km/h 62% 0.01in /  0.3mm
21:40 51.0 °F /  10.6 °C 38.9 °F /  3.8 °C 30.00in /  1015.8hPa North 2.0mph /  3.2km/h 8.0mph /  12.9km/h 63% 0.01in /  0.3mm
21:45 50.8 °F /  10.4 °C 38.3 °F /  3.5 °C 30.00in /  1015.8hPa North 1.0mph /  1.6km/h 6.0mph /  9.7km/h 62% 0.01in /  0.3mm
21:50 50.6 °F /  10.3 °C 38.9 °F /  3.8 °C 30.00in /  1015.8hPa NNE 1.0mph /  1.6km/h 6.0mph /  9.7km/h 64% 0.01in /  0.3mm
21:55 50.5 °F /  10.3 °C 39.6 °F /  4.2 °C 30.00in /  1015.8hPa Calm   6.0mph /  9.7km/h 66% 0.01in /  0.3mm
22:00 50.2 °F /  10.1 °C 39.3 °F /  4.1 °C 30.00in /  1015.8hPa NE 1.0mph /  1.6km/h 6.0mph /  9.7km/h 66% 0.01in /  0.3mm
22:05 50.0 °F /  10 °C 39.1 °F /  3.9 °C 30.00in /  1015.8hPa Calm   4.0mph /  6.4km/h 66% 0.01in /  0.3mm
22:10 49.7 °F /  9.8 °C 39.2 °F /  4 °C 30.00in /  1015.8hPa Calm   4.0mph /  6.4km/h 67% 0.01in /  0.3mm
22:15 49.5 °F /  9.7 °C 38.6 °F /  3.7 °C 30.00in /  1015.8hPa NNW 1.0mph /  1.6km/h 5.0mph /  8km/h 66% 0.01in /  0.3mm
22:20 49.3 °F /  9.6 °C 38.4 °F /  3.6 °C 30.00in /  1015.8hPa Calm   5.0mph /  8km/h 66% 0.01in /  0.3mm
22:25 49.2 °F /  9.6 °C 38.7 °F /  3.7 °C 30.00in /  1015.8hPa NNE 1.0mph /  1.6km/h 6.0mph /  9.7km/h 67% 0.01in /  0.3mm
22:30 49.2 °F /  9.6 °C 38.7 °F /  3.7 °C 29.99in /  1015.5hPa Calm   6.0mph /  9.7km/h 67% 0.01in /  0.3mm
22:35 49.0 °F /  9.4 °C 38.9 °F /  3.8 °C 30.00in /  1015.8hPa Calm   4.0mph /  6.4km/h 68% 0.01in /  0.3mm
22:45 48.5 °F /  9.2 °C 39.2 °F /  4 °C 30.00in /  1015.8hPa North 1.0mph /  1.6km/h 7.0mph /  11.3km/h 70% 0.01in /  0.3mm
22:50 48.5 °F /  9.2 °C 39.2 °F /  4 °C 30.00in /  1015.8hPa North 1.0mph /  1.6km/h 7.0mph /  11.3km/h 70% 0.01in /  0.3mm
22:55 48.4 °F /  9.1 °C 39.4 °F /  4.1 °C 30.00in /  1015.8hPa Calm   5.0mph /  8km/h 71% 0.01in /  0.3mm
23:00 48.4 °F /  9.1 °C 39.1 °F /  3.9 °C 30.00in /  1015.8hPa Calm   5.0mph /  8km/h 70% 0.01in /  0.3mm
23:05 48.4 °F /  9.1 °C 39.1 °F /  3.9 °C 30.00in /  1015.8hPa NNE 1.0mph /  1.6km/h 6.0mph /  9.7km/h 70% 0.01in /  0.3mm
23:10 48.4 °F /  9.1 °C 39.1 °F /  3.9 °C 30.00in /  1015.8hPa Calm   7.0mph /  11.3km/h 70% 0.01in /  0.3mm
23:15 48.3 °F /  9.1 °C 39.3 °F /  4.1 °C 30.00in /  1015.8hPa Calm   7.0mph /  11.3km/h 71% 0.01in /  0.3mm
23:20 48.2 °F /  9 °C 38.9 °F /  3.8 °C 30.00in /  1015.8hPa Calm   5.0mph /  8km/h 70% 0.01in /  0.3mm
23:25 48.2 °F /  9 °C 39.2 °F /  4 °C 30.00in /  1015.8hPa Calm   5.0mph /  8km/h 71% 0.01in /  0.3mm
23:30 48.2 °F /  9 °C 39.2 °F /  4 °C 30.00in /  1015.8hPa NNE 1.0mph /  1.6km/h 5.0mph /  8km/h 71% 0.01in /  0.3mm
23:35 48.1 °F /  8.9 °C 39.1 °F /  3.9 °C 30.00in /  1015.8hPa Calm   5.0mph /  8km/h 71% 0.01in /  0.3mm
23:40 48.2 °F /  9 °C 39.6 °F /  4.2 °C 30.00in /  1015.8hPa Calm   4.0mph /  6.4km/h 72% 0.01in /  0.3mm
23:45 48.3 °F /  9.1 °C 39.3 °F /  4.1 °C 30.00in /  1015.8hPa NNE 1.0mph /  1.6km/h 5.0mph /  8km/h 71% 0.01in /  0.3mm
23:50 48.4 °F /  9.1 °C 39.4 °F /  4.1 °C 30.00in /  1015.8hPa Calm   5.0mph /  8km/h 71% 0.01in /  0.3mm
23:55 48.6 °F /  9.2 °C 39.6 °F /  4.2 °C 30.00in /  1015.8hPa Calm   2.0mph /  3.2km/h 71% 0.01in /  0.3mm
Westford Weather
Compliments of Weather Underground

 
 
Current Radar Loop:

Copyright © WestfordWeather.net 2007-2014. All rights reserved.